Terminal Aerodrome Forecast
Issued by NWS Los Angeles, CA

Home | Current Version | Previous Version | Text Only | Print | Product List | Glossary On
Versions: 1 2 3 4 5 6 7 8 9 10 11 12 13 14 15 16 17 18 19 20 21
377
FTUS46 KLOX 211732
TAFSMX
TAF
KSMX 211732Z 2118/2218 09004KT P6SM OVC022
     FM211900 30008KT P6SM SCT020
     FM212100 31012KT P6SM FEW025
     FM220200 31006KT P6SM OVC015
     FM220600 VRB03KT P6SM OVC010
     FM221700 11004KT P6SM BKN012=

USA.gov is the U.S. government's official web portal to all federal, state and local government web resources and services.